ADDS METAR Data INFO
IDs: Format: Raw Decoded Include TAF

Data at: 2332 UTC 19 Oct 2017

KAUS 192253Z 13009KT 10SM FEW055 BKN300 28/14 A3004 RMK AO2 SLP167 T02780144
KAUS 192153Z 12005KT 10SM SCT055 BKN300 28/16 A3004 RMK AO2 SLP168 T02780156
KAUS 192053Z 12007KT 10SM SCT050 BKN300 28/16 A3005 RMK AO2 SLP171 T02780156 56026
KAUS 191953Z 10004KT 10SM SCT050 BKN300 27/16 A3007 RMK AO2 SLP175 T02720156
KAUS 191853Z 10007KT 10SM SCT039 SCT200 BKN300 27/17 A3010 RMK AO2 SLP185 T02720167
KAUS 191753Z VRB04KT 10SM SCT036 SCT200 BKN300 26/17 A3013 RMK AO2 SLP197 T02560172 10261 20111 58008
KAUS 191653Z 00000KT 10SM FEW035 SCT200 BKN300 24/18 A3015 RMK AO2 SLP206 T02390178
KAUS 191553Z 04003KT 10SM FEW032 BKN200 BKN300 22/18 A3016 RMK AO2 SLP207 T02220178
KAUS 191453Z 05003KT 7SM BCFG SCT030 BKN200 BKN250 19/17 A3015 RMK AO2 SLP207 T01890167 53011
KAUS 191353Z 00000KT 8SM BCFG BKN030 BKN200 BKN250 16/14 A3013 RMK AO2 SLP202 T01560139
KAUS 191253Z 00000KT 7SM BCFG BKN030 BKN250 13/12 A3012 RMK AO2 SLP199 T01280122
KAUS 191153Z 00000KT 7SM BCFG BKN028 12/11 A3012 RMK AO2 SLP196 T01170111 10150 20100 53002
KAUS 191143Z 00000KT 8SM BCFG BKN028 11/11 A3012 RMK AO2 T01110111
KAUS 191053Z 00000KT 8SM BCFG FEW250 10/10 A3011 RMK AO2 SLP193 T01000100
KAUS 190953Z 00000KT 9SM FEW250 11/11 A3011 RMK AO2 SLP190 T01110111
KAUS 190853Z 00000KT 10SM FEW250 11/11 A3011 RMK AO2 SLP192 T01060106 58004
KAUS 190753Z 00000KT 10SM FEW250 12/12 A3012 RMK AO2 SLP193 T01220122
KAUS 190653Z 19004KT 10SM FEW250 14/13 A3012 RMK AO2 SLP192 T01440133
KAUS 190553Z 00000KT 10SM SCT250 13/11 A3012 RMK AO2 SLP196 T01330111 10206 20111 402780050 51004
KAUS 190453Z 00000KT 10SM SCT250 12/11 A3012 RMK AO2 SLP197 T01170106
KAUS 190353Z 00000KT 10SM SCT250 14/11 A3012 RMK AO2 SLP195 T01390111
KAUS 190253Z 00000KT 10SM CLR 14/12 A3011 RMK AO2 SLP194 T01440117 51014
KAUS 190153Z 00000KT 10SM BKN250 14/12 A3010 RMK AO2 SLP193 T01440122
KAUS 190053Z 00000KT 10SM FEW200 BKN250 16/12 A3009 RMK AO2 SLP189 T01610122
KAUS 182353Z 16003KT 10SM FEW200 SCT250 BKN300 21/12 A3007 RMK AO2 SLP181 T02060117 10278 20206 55007
KAUS 182253Z 18006KT 10SM FEW200 BKN300 26/10 A3007 RMK AO2 SLP180 T02610100
KAUS 182153Z 15006KT 10SM SCT200 SCT300 27/08 A3007 RMK AO2 SLP180 T02720083
KAUS 182053Z 15005KT 10SM FEW200 SCT300 27/08 A3009 RMK AO2 SLP186 T02720083 56024
KAUS 181953Z VRB04KT 10SM FEW300 27/10 A3010 RMK AO2 SLP190 T02670100
KAUS 181853Z 20008G14KT 10SM FEW300 26/11 A3013 RMK AO2 SLP200 T02610106
KAUS 181753Z 17007KT 10SM CLR 24/11 A3016 RMK AO2 SLP210 T02390111 10244 20050 58009
KAUS 181653Z 17007KT 10SM FEW250 23/09 A3018 RMK AO2 SLP216 T02280094
KAUS 181553Z 16004KT 10SM FEW250 20/12 A3018 RMK AO2 SLP220 T02000122
KAUS 181453Z 00000KT 10SM FEW250 16/11 A3019 RMK AO2 SLP221 T01560106 51010 $
KAUS 181353Z 00000KT 10SM FEW200 12/09 A3018 RMK AO2 SLP219 T01170094 $
KAUS 181253Z 00000KT 8SM CLR 06/05 A3016 RMK AO2 SLP216 T00560050 $
KAUS 181153Z 00000KT 9SM CLR 06/05 A3015 RMK AO2 SLP211 T00560050 10083 20050 53001 $